createdAt,value
2019-05-22T00:01:13.279Z,89.47
2019-05-22T00:03:47.193Z,89.49
2019-05-22T00:06:18.491Z,89.58
2019-05-22T00:08:49.945Z,90.02
2019-05-22T00:11:21.706Z,90.06
2019-05-22T00:13:51.513Z,90.17
2019-05-22T00:16:22.115Z,90.18
2019-05-22T00:18:52.478Z,89.92
2019-05-22T00:21:22.595Z,90.08
2019-05-22T00:23:52.473Z,90.03
2019-05-22T00:26:23.390Z,90.09
2019-05-22T00:28:53.988Z,90.27
2019-05-22T00:31:23.329Z,90.23
2019-05-22T00:33:55.439Z,90.33
2019-05-22T00:36:24.852Z,90.33
2019-05-22T00:38:55.827Z,90.41
2019-05-22T00:41:26.884Z,90.47
2019-05-22T00:43:56.296Z,90.40
2019-05-22T00:46:25.911Z,90.59
2019-05-22T00:48:55.313Z,90.48
2019-05-22T00:51:30.943Z,90.65
2019-05-22T00:54:03.492Z,90.89
2019-05-22T00:56:34.483Z,90.87
2019-05-22T00:59:11.081Z,90.90
2019-05-22T01:01:45.434Z,90.86
2019-05-22T01:04:16.418Z,90.99
2019-05-22T01:06:47.667Z,91.01
2019-05-22T01:09:34.319Z,91.19
2019-05-22T01:12:03.998Z,90.89
2019-05-22T01:14:42.985Z,90.85
2019-05-22T01:17:08.111Z,90.78
2019-05-22T01:19:39.096Z,90.83
2019-05-22T01:22:10.259Z,90.80
2019-05-22T01:24:41.566Z,90.75
2019-05-22T01:27:12.676Z,90.79
2019-05-22T01:29:43.981Z,90.37
2019-05-22T01:32:16.125Z,90.51
2019-05-22T01:34:45.741Z,90.65
2019-05-22T01:37:15.951Z,90.79
2019-05-22T01:39:55.836Z,90.81
2019-05-22T01:42:30.342Z,90.87
2019-05-22T01:45:06.209Z,90.47
2019-05-22T01:47:49.049Z,90.38
2019-05-22T01:50:29.020Z,90.22
2019-05-22T01:52:58.444Z,90.30
2019-05-22T01:55:27.782Z,90.61
2019-05-22T01:57:58.165Z,89.75
2019-05-22T02:00:28.121Z,88.85
2019-05-22T02:02:58.085Z,88.39
2019-05-22T02:05:28.487Z,88.00
2019-05-22T02:07:59.223Z,87.43
2019-05-22T02:10:38.338Z,87.43
2019-05-22T02:13:11.202Z,87.13
2019-05-22T02:15:41.521Z,86.96
2019-05-22T02:18:17.913Z,86.51
2019-05-22T02:20:48.138Z,86.94
2019-05-22T02:23:17.952Z,86.85
2019-05-22T02:25:47.666Z,86.86
2019-05-22T02:28:18.506Z,86.19
2019-05-22T02:30:48.496Z,84.58
2019-05-22T02:33:22.146Z,84.58
2019-05-22T02:35:51.510Z,84.37
2019-05-22T02:38:21.169Z,83.92
2019-05-22T02:40:53.185Z,84.00
2019-05-22T02:43:24.550Z,83.24
2019-05-22T02:45:53.891Z,82.99
2019-05-22T02:48:25.671Z,82.71
2019-05-22T02:50:57.015Z,81.93
2019-05-22T02:53:27.624Z,81.53
2019-05-22T02:55:57.430Z,81.68
2019-05-22T02:58:28.795Z,81.98
2019-05-22T03:01:02.544Z,82.04
2019-05-22T03:03:33.578Z,81.96
2019-05-22T03:06:05.642Z,79.95
2019-05-22T03:08:58.197Z,80.17
2019-05-22T03:11:37.380Z,80.42
2019-05-22T03:14:09.193Z,80.62
2019-05-22T03:16:57.926Z,80.88
2019-05-22T03:19:43.779Z,79.72
2019-05-22T03:22:34.592Z,79.53
2019-05-22T03:25:08.090Z,79.59
2019-05-22T03:27:39.953Z,79.68
2019-05-22T03:30:21.296Z,79.76
2019-05-22T03:32:52.102Z,79.57
2019-05-22T03:35:24.628Z,79.51
2019-05-22T03:37:56.476Z,79.54
2019-05-22T03:40:28.751Z,78.69
2019-05-22T03:42:59.765Z,77.96
2019-05-22T03:45:31.048Z,77.40
2019-05-22T03:48:03.767Z,77.29
2019-05-22T03:50:33.484Z,77.39
2019-05-22T03:53:08.499Z,77.64
2019-05-22T03:55:38.119Z,77.36
2019-05-22T03:58:07.458Z,77.75
2019-05-22T04:00:42.926Z,77.53
2019-05-22T04:03:09.811Z,77.53
2019-05-22T04:05:39.240Z,77.55
2019-05-22T04:08:10.883Z,77.75
2019-05-22T04:11:02.615Z,78.10
2019-05-22T04:13:33.177Z,78.21
2019-05-22T04:16:05.603Z,78.65
2019-05-22T04:18:35.833Z,79.21
2019-05-22T04:21:05.815Z,79.68
2019-05-22T04:23:35.939Z,79.82
2019-05-22T04:26:08.960Z,80.20
2019-05-22T04:28:41.339Z,79.92
2019-05-22T04:31:10.750Z,80.07
2019-05-22T04:33:40.082Z,78.98
2019-05-22T04:36:10.497Z,78.04
2019-05-22T04:38:40.950Z,77.90
2019-05-22T04:41:10.378Z,77.87
2019-05-22T04:43:40.085Z,78.08
2019-05-22T04:46:11.512Z,78.28
2019-05-22T04:48:45.809Z,77.93
2019-05-22T04:51:26.313Z,78.01
2019-05-22T04:53:57.551Z,78.14
2019-05-22T04:56:28.201Z,77.99
2019-05-22T04:58:58.580Z,77.76
2019-05-22T05:01:28.393Z,77.74
2019-05-22T05:03:58.837Z,77.18
2019-05-22T05:06:29.807Z,77.07
2019-05-22T05:08:59.486Z,77.24
2019-05-22T05:11:28.961Z,77.17
2019-05-22T05:13:58.367Z,76.26
2019-05-22T05:16:27.761Z,76.51
2019-05-22T05:18:57.163Z,76.66
2019-05-22T05:21:26.903Z,76.86
2019-05-22T05:23:56.595Z,77.19
2019-05-22T05:26:26.748Z,76.68
2019-05-22T05:28:56.222Z,77.22
2019-05-22T05:31:25.643Z,76.02
2019-05-22T05:34:13.060Z,76.26
2019-05-22T05:36:42.797Z,77.07
2019-05-22T05:39:37.702Z,75.60
2019-05-22T05:42:07.107Z,75.51
2019-05-22T05:44:36.526Z,75.80
2019-05-22T05:47:07.381Z,75.73
2019-05-22T05:49:36.714Z,75.87
2019-05-22T05:52:09.120Z,74.83
2019-05-22T05:54:39.474Z,74.10
2019-05-22T05:57:35.502Z,74.15
2019-05-22T06:00:09.191Z,74.22
2019-05-22T06:02:37.955Z,74.30
2019-05-22T06:05:09.576Z,74.05
2019-05-22T06:07:39.394Z,73.00
2019-05-22T06:10:20.499Z,73.33
2019-05-22T06:12:50.494Z,73.99
2019-05-22T06:15:20.559Z,74.20
2019-05-22T06:18:27.741Z,73.67
2019-05-22T06:21:03.747Z,74.35
2019-05-22T06:23:32.616Z,73.53
2019-05-22T06:26:04.779Z,73.68
2019-05-22T06:28:38.345Z,73.17
2019-05-22T06:31:11.193Z,72.98
2019-05-22T06:33:40.536Z,73.75
2019-05-22T06:36:12.876Z,73.98
2019-05-22T06:38:59.682Z,72.70
2019-05-22T06:41:32.861Z,71.25
2019-05-22T06:44:30.243Z,71.41
2019-05-22T06:47:00.647Z,72.18
2019-05-22T06:49:36.268Z,72.31
2019-05-22T06:52:09.476Z,71.77
2019-05-22T06:54:39.320Z,70.99
2019-05-22T06:57:12.263Z,71.20
2019-05-22T06:59:43.436Z,71.53
2019-05-22T07:02:14.812Z,71.91
2019-05-22T07:04:44.859Z,71.39
2019-05-22T07:07:15.897Z,71.82
2019-05-22T07:09:46.345Z,71.59
2019-05-22T07:12:19.988Z,72.18
2019-05-22T07:14:50.539Z,70.03
2019-05-22T07:17:22.150Z,70.23
2019-05-22T07:19:52.045Z,70.89
2019-05-22T07:22:22.021Z,70.85
2019-05-22T07:24:51.620Z,70.82
2019-05-22T07:27:26.849Z,70.44
2019-05-22T07:29:57.056Z,70.02
2019-05-22T07:32:30.532Z,69.04
2019-05-22T07:34:57.654Z,69.76
2019-05-22T07:37:26.991Z,69.16
2019-05-22T07:39:56.457Z,68.31
2019-05-22T07:42:26.117Z,68.85
2019-05-22T07:44:55.454Z,67.97
2019-05-22T07:47:26.127Z,67.99
2019-05-22T07:49:55.691Z,68.07
2019-05-22T07:52:25.551Z,67.54
2019-05-22T07:54:55.592Z,68.61
2019-05-22T07:57:27.106Z,67.67
2019-05-22T07:59:56.714Z,67.42
2019-05-22T08:02:29.778Z,66.88
2019-05-22T08:05:01.231Z,67.20
2019-05-22T08:07:35.002Z,66.44
2019-05-22T08:10:07.809Z,66.82
2019-05-22T08:12:38.163Z,67.48
2019-05-22T08:15:08.841Z,65.70
2019-05-22T08:17:38.356Z,66.05
2019-05-22T08:20:07.765Z,65.55
2019-05-22T08:22:38.940Z,66.21
2019-05-22T08:25:09.250Z,66.52
2019-05-22T08:27:39.328Z,65.58
2019-05-22T08:30:10.014Z,64.14
2019-05-22T08:32:40.387Z,64.94
2019-05-22T08:35:11.751Z,64.14
2019-05-22T08:37:42.935Z,63.58
2019-05-22T08:40:16.303Z,64.41
2019-05-22T08:42:46.397Z,64.08
2019-05-22T08:45:18.673Z,63.92
2019-05-22T08:47:48.195Z,64.88
2019-05-22T08:50:20.010Z,62.08
2019-05-22T08:52:49.513Z,62.24
2019-05-22T08:55:18.925Z,62.10
2019-05-22T08:57:48.361Z,62.36
2019-05-22T09:00:19.865Z,62.18
2019-05-22T09:02:50.922Z,60.68
2019-05-22T09:05:21.794Z,61.63
2019-05-22T09:07:51.916Z,61.04
2019-05-22T09:10:25.793Z,61.00
2019-05-22T09:12:53.305Z,58.89
2019-05-22T09:15:23.602Z,60.27
2019-05-22T09:17:53.477Z,60.07
2019-05-22T09:20:23.083Z,60.90
2019-05-22T09:22:52.859Z,61.16
2019-05-22T09:25:22.194Z,61.30
2019-05-22T09:27:51.872Z,61.68
2019-05-22T09:30:21.709Z,62.25
2019-05-22T09:32:51.364Z,61.91
2019-05-22T09:35:21.279Z,61.02
2019-05-22T09:37:50.994Z,57.21
2019-05-22T09:40:20.851Z,58.02
2019-05-22T09:42:50.263Z,59.53
2019-05-22T09:45:20.209Z,59.70
2019-05-22T09:47:49.685Z,59.20
2019-05-22T09:50:19.582Z,59.58
2019-05-22T09:52:57.589Z,58.37
2019-05-22T09:55:20.808Z,58.92
2019-05-22T09:57:50.213Z,58.57
2019-05-22T10:00:20.560Z,58.61
2019-05-22T10:02:50.022Z,58.63
2019-05-22T10:05:19.895Z,57.79
2019-05-22T10:08:00.411Z,57.54
2019-05-22T10:10:21.112Z,57.02
2019-05-22T10:12:50.799Z,56.87
2019-05-22T10:15:21.268Z,56.75
2019-05-22T10:17:50.842Z,57.08
2019-05-22T10:20:20.914Z,56.45
2019-05-22T10:22:50.313Z,56.27
2019-05-22T10:25:20.082Z,55.66
2019-05-22T10:27:49.957Z,55.97
2019-05-22T10:30:22.644Z,56.70
2019-05-22T10:32:51.990Z,55.96
2019-05-22T10:35:27.015Z,54.41
2019-05-22T10:37:57.167Z,54.80
2019-05-22T10:40:27.022Z,55.93
2019-05-22T10:42:57.395Z,54.96
2019-05-22T10:45:27.530Z,56.27
2019-05-22T10:47:57.442Z,54.85
2019-05-22T10:50:27.623Z,55.57
2019-05-22T10:52:57.422Z,55.33
2019-05-22T10:55:28.278Z,54.82
2019-05-22T10:57:58.215Z,53.31
2019-05-22T11:00:27.626Z,54.67
2019-05-22T11:02:57.877Z,51.61
2019-05-22T11:05:27.448Z,52.23
2019-05-22T11:07:59.138Z,53.11
2019-05-22T11:10:29.108Z,53.45
2019-05-22T11:12:59.201Z,53.21
2019-05-22T11:15:28.944Z,49.17
2019-05-22T11:17:58.594Z,47.35
2019-05-22T11:20:28.699Z,49.04
2019-05-22T11:22:58.046Z,49.83
2019-05-22T11:25:27.644Z,48.95
2019-05-22T11:27:56.984Z,47.01
2019-05-22T11:30:27.051Z,46.13
2019-05-22T11:32:56.850Z,44.65
2019-05-22T11:35:27.429Z,45.45
2019-05-22T11:37:56.939Z,45.91
2019-05-22T11:40:26.876Z,43.14
2019-05-22T11:42:57.629Z,42.42
2019-05-22T11:45:28.174Z,42.12
2019-05-22T11:47:57.509Z,41.54
2019-05-22T11:50:27.692Z,40.23
2019-05-22T11:52:57.111Z,40.09
2019-05-22T11:55:42.618Z,40.12
2019-05-22T11:57:57.657Z,39.57
2019-05-22T12:00:27.690Z,39.87
2019-05-22T12:02:57.583Z,37.89
2019-05-22T12:05:26.906Z,36.09
2019-05-22T12:07:56.799Z,37.01
2019-05-22T12:10:26.586Z,34.04
2019-05-22T12:12:55.988Z,34.10
2019-05-22T12:15:28.132Z,34.03
2019-05-22T12:17:57.860Z,33.94
2019-05-22T12:20:29.240Z,32.74
2019-05-22T12:22:58.778Z,32.30
2019-05-22T12:25:29.125Z,31.19
2019-05-22T12:27:58.467Z,31.42
2019-05-22T12:30:28.429Z,30.36
2019-05-22T12:32:59.202Z,32.04
2019-05-22T12:35:29.104Z,30.91
2019-05-22T12:38:00.196Z,30.48
2019-05-22T12:40:33.750Z,30.52
2019-05-22T12:43:03.381Z,31.56
2019-05-22T12:45:33.409Z,32.93
2019-05-22T12:48:04.078Z,31.61
2019-05-22T12:50:34.554Z,31.95
2019-05-22T12:53:06.767Z,31.17
2019-05-22T12:55:36.668Z,28.55
2019-05-22T12:58:06.725Z,28.72
2019-05-22T13:00:36.390Z,29.70
2019-05-22T13:03:07.433Z,28.30
2019-05-22T13:05:39.425Z,26.89
2019-05-22T13:08:09.359Z,26.59
2019-05-22T13:10:39.398Z,27.61
2019-05-22T13:13:08.897Z,26.01
2019-05-22T13:15:39.381Z,26.43
2019-05-22T13:18:10.631Z,25.72
2019-05-22T13:20:44.977Z,25.80
2019-05-22T13:23:17.567Z,25.72
2019-05-22T13:25:47.263Z,26.08
2019-05-22T13:28:18.942Z,25.80
2019-05-22T13:30:52.691Z,25.27
2019-05-22T13:33:26.576Z,25.90
2019-05-22T13:35:57.735Z,26.85
2019-05-22T13:38:28.734Z,26.85
2019-05-22T13:40:58.573Z,27.10
2019-05-22T13:43:28.830Z,26.53
2019-05-22T13:45:59.276Z,26.50
2019-05-22T13:48:30.215Z,27.58
2019-05-22T13:51:00.397Z,28.25
2019-05-22T13:53:31.929Z,27.99
2019-05-22T13:56:01.410Z,27.53
2019-05-22T13:58:30.857Z,26.64
2019-05-22T14:01:00.659Z,26.77
2019-05-22T14:03:30.591Z,27.28
2019-05-22T14:06:00.354Z,26.66
2019-05-22T14:08:29.919Z,27.29
2019-05-22T14:11:00.374Z,25.12
2019-05-22T14:13:30.853Z,25.42
2019-05-22T14:16:00.263Z,24.93
2019-05-22T14:18:29.885Z,24.95
2019-05-22T14:20:59.496Z,23.88
2019-05-22T14:23:29.963Z,23.51
2019-05-22T14:25:59.500Z,23.35
2019-05-22T14:28:30.850Z,23.06
2019-05-22T14:31:00.549Z,23.02
2019-05-22T14:33:30.282Z,23.21
2019-05-22T14:36:00.967Z,23.26
2019-05-22T14:38:30.292Z,23.26
2019-05-22T14:41:00.578Z,23.54
2019-05-22T14:43:30.097Z,25.24
2019-05-22T14:45:59.449Z,25.19
2019-05-22T14:48:29.148Z,25.19
2019-05-22T14:50:59.477Z,25.91
2019-05-22T14:53:29.723Z,25.17
2019-05-22T14:56:01.439Z,27.25
2019-05-22T14:58:31.622Z,27.25
2019-05-22T15:01:01.019Z,26.05
2019-05-22T15:03:30.892Z,25.43
2019-05-22T15:06:00.489Z,24.96
2019-05-22T15:08:29.964Z,25.25
2019-05-22T15:10:59.775Z,26.09
2019-05-22T15:13:29.530Z,25.00
2019-05-22T15:15:58.880Z,25.89
2019-05-22T15:18:28.943Z,25.57
2019-05-22T15:21:09.448Z,25.91
2019-05-22T15:23:39.542Z,26.03
2019-05-22T15:26:09.672Z,26.27
2019-05-22T15:28:40.209Z,27.35
2019-05-22T15:31:09.703Z,27.09
2019-05-22T15:33:40.668Z,27.35
2019-05-22T15:36:13.644Z,26.73
2019-05-22T15:38:44.884Z,27.07
2019-05-22T15:41:14.482Z,27.39
2019-05-22T15:43:50.391Z,27.20
2019-05-22T15:46:18.577Z,28.47
2019-05-22T15:48:48.832Z,29.07
2019-05-22T15:51:21.240Z,29.71
2019-05-22T15:53:52.078Z,30.46
2019-05-22T15:56:21.876Z,30.24
2019-05-22T15:58:54.661Z,30.37
2019-05-22T16:01:25.603Z,30.83
2019-05-22T16:03:56.767Z,31.40
2019-05-22T16:06:29.515Z,31.49
2019-05-22T16:08:59.682Z,31.10
2019-05-22T16:11:31.627Z,29.99
2019-05-22T16:14:03.306Z,30.10
2019-05-22T16:16:34.620Z,30.90
2019-05-22T16:19:07.555Z,31.86
2019-05-22T16:21:40.208Z,31.47
2019-05-22T16:24:10.574Z,31.68
2019-05-22T16:26:41.106Z,31.43
2019-05-22T16:29:10.882Z,31.81
2019-05-22T16:31:42.731Z,32.44
2019-05-22T16:34:12.492Z,32.66
2019-05-22T16:36:44.894Z,32.36
2019-05-22T16:39:15.535Z,32.88
2019-05-22T16:41:46.182Z,33.53
2019-05-22T16:44:16.450Z,32.59
2019-05-22T16:46:48.564Z,32.83
2019-05-22T16:49:17.962Z,33.33
2019-05-22T16:51:48.540Z,32.51
2019-05-22T16:54:20.887Z,34.16
2019-05-22T16:56:50.326Z,32.66
2019-05-22T16:59:20.170Z,32.60
2019-05-22T17:01:59.859Z,32.83
2019-05-22T17:04:21.179Z,33.56
2019-05-22T17:06:51.554Z,33.57
2019-05-22T17:09:21.757Z,34.77
2019-05-22T17:11:52.513Z,34.01
2019-05-22T17:14:23.891Z,35.11
2019-05-22T17:16:53.572Z,35.67
2019-05-22T17:19:27.516Z,36.15
2019-05-22T17:21:55.140Z,35.60
2019-05-22T17:24:24.941Z,35.91
2019-05-22T17:26:56.018Z,37.71
2019-05-22T17:29:26.379Z,37.48
2019-05-22T17:31:56.265Z,37.59
2019-05-22T17:34:31.832Z,34.60
2019-05-22T17:37:06.233Z,34.07
2019-05-22T17:39:38.171Z,33.85
2019-05-22T17:42:10.518Z,34.45
2019-05-22T17:44:43.192Z,34.50
2019-05-22T17:47:13.525Z,34.29
2019-05-22T17:49:43.321Z,34.04
2019-05-22T17:52:14.572Z,34.41
2019-05-22T17:54:45.146Z,34.13
2019-05-22T17:57:15.313Z,34.52
2019-05-22T17:59:44.656Z,34.89
2019-05-22T18:02:16.138Z,34.56
2019-05-22T18:04:45.801Z,36.41
2019-05-22T18:07:15.498Z,35.09
2019-05-22T18:09:45.078Z,35.34
2019-05-22T18:12:15.007Z,36.39
2019-05-22T18:14:45.317Z,37.06
2019-05-22T18:17:15.385Z,37.84
2019-05-22T18:19:44.981Z,37.30
2019-05-22T18:22:16.317Z,35.56
2019-05-22T18:24:46.426Z,35.36
2019-05-22T18:27:15.763Z,35.59
2019-05-22T18:29:45.093Z,36.83
2019-05-22T18:32:14.424Z,36.17
2019-05-22T18:34:43.783Z,36.52
2019-05-22T18:37:13.184Z,38.13
2019-05-22T18:39:42.512Z,36.73
2019-05-22T18:42:12.588Z,36.58
2019-05-22T18:44:41.919Z,36.79
2019-05-22T18:47:11.824Z,39.91
2019-05-22T18:49:41.223Z,40.23
2019-05-22T18:52:11.324Z,42.17
2019-05-22T18:54:40.719Z,42.66
2019-05-22T18:57:10.735Z,44.94
2019-05-22T18:59:40.341Z,45.52
2019-05-22T19:02:09.672Z,45.47
2019-05-22T19:04:40.278Z,44.12
2019-05-22T19:07:10.063Z,44.87
2019-05-22T19:09:39.572Z,45.68
2019-05-22T19:12:09.048Z,44.89
2019-05-22T19:14:38.368Z,45.04
2019-05-22T19:17:08.122Z,44.83
2019-05-22T19:19:38.391Z,44.47
2019-05-22T19:22:07.966Z,46.14
2019-05-22T19:24:37.434Z,46.55
2019-05-22T19:27:06.850Z,48.20
2019-05-22T19:29:36.285Z,48.98
2019-05-22T19:32:06.047Z,48.95
2019-05-22T19:34:35.379Z,49.01
2019-05-22T19:37:04.779Z,48.84
2019-05-22T19:39:34.883Z,49.97
2019-05-22T19:42:05.754Z,50.52
2019-05-22T19:44:35.513Z,50.49
2019-05-22T19:47:06.791Z,50.04
2019-05-22T19:49:36.117Z,50.45
2019-05-22T19:52:07.665Z,50.62
2019-05-22T19:54:38.340Z,48.83
2019-05-22T19:57:09.014Z,48.93
2019-05-22T19:59:38.357Z,49.16
2019-05-22T20:02:09.714Z,50.33
2019-05-22T20:04:39.115Z,50.11
2019-05-22T20:07:09.404Z,50.86
2019-05-22T20:09:39.383Z,51.09
2019-05-22T20:12:11.770Z,51.12
2019-05-22T20:14:41.111Z,50.30
2019-05-22T20:17:10.715Z,49.94
2019-05-22T20:19:40.564Z,50.29
2019-05-22T20:22:10.237Z,50.06
2019-05-22T20:24:39.638Z,50.63
2019-05-22T20:27:10.230Z,49.22
2019-05-22T20:29:41.187Z,48.52
2019-05-22T20:32:13.926Z,48.33
2019-05-22T20:34:43.711Z,48.15
2019-05-22T20:37:13.216Z,48.56
2019-05-22T20:39:42.563Z,49.25
2019-05-22T20:42:12.084Z,49.56
2019-05-22T20:44:42.330Z,49.47
2019-05-22T20:47:11.740Z,50.33
2019-05-22T20:49:43.360Z,50.68
2019-05-22T20:52:14.315Z,51.80
2019-05-22T20:54:44.997Z,52.32
2019-05-22T20:57:19.575Z,53.18
2019-05-22T20:59:47.685Z,54.01
2019-05-22T21:02:19.736Z,54.63
2019-05-22T21:04:51.413Z,54.86
2019-05-22T21:07:26.527Z,55.62
2019-05-22T21:09:57.372Z,56.03
2019-05-22T21:12:27.345Z,56.64
2019-05-22T21:14:57.342Z,57.10
2019-05-22T21:17:28.488Z,57.33
2019-05-22T21:19:59.589Z,58.11
2019-05-22T21:22:29.410Z,58.57
2019-05-22T21:24:59.774Z,59.02
2019-05-22T21:27:30.414Z,59.31
2019-05-22T21:29:59.828Z,59.61
2019-05-22T21:32:29.869Z,59.78
2019-05-22T21:34:59.591Z,60.33
2019-05-22T21:37:29.314Z,61.05
2019-05-22T21:39:59.206Z,61.67
2019-05-22T21:42:30.267Z,62.07
2019-05-22T21:44:59.974Z,62.37
2019-05-22T21:47:29.586Z,62.92
2019-05-22T21:49:59.007Z,63.31
2019-05-22T21:52:28.495Z,64.13
2019-05-22T21:54:58.875Z,64.25
2019-05-22T21:57:28.559Z,64.63
2019-05-22T21:59:57.899Z,65.03
2019-05-22T22:02:31.929Z,65.47
2019-05-22T22:05:01.333Z,65.82
2019-05-22T22:07:30.741Z,66.12
2019-05-22T22:10:00.416Z,66.43
2019-05-22T22:12:30.020Z,66.70
2019-05-22T22:14:59.929Z,66.90
2019-05-22T22:17:30.619Z,66.87
2019-05-22T22:20:01.289Z,67.29
2019-05-22T22:22:31.355Z,67.58
2019-05-22T22:25:01.624Z,67.55
2019-05-22T22:27:31.388Z,67.49
2019-05-22T22:30:02.623Z,67.21
2019-05-22T22:32:33.312Z,66.64
2019-05-22T22:35:02.921Z,66.40
2019-05-22T22:37:32.637Z,66.40
2019-05-22T22:40:02.520Z,66.62
2019-05-22T22:42:36.834Z,66.51
2019-05-22T22:45:08.849Z,66.76
2019-05-22T22:47:39.452Z,66.99
2019-05-22T22:50:09.947Z,67.25
2019-05-22T22:52:40.635Z,67.44
2019-05-22T22:55:13.052Z,67.50
2019-05-22T22:57:42.652Z,67.55
2019-05-22T23:00:15.599Z,67.91
2019-05-22T23:02:46.361Z,68.41
2019-05-22T23:05:16.839Z,68.34
2019-05-22T23:07:48.593Z,68.39
2019-05-22T23:10:20.182Z,68.49
2019-05-22T23:12:51.044Z,69.19
2019-05-22T23:15:21.710Z,69.14
2019-05-22T23:17:53.041Z,69.22
2019-05-22T23:20:21.459Z,69.23
2019-05-22T23:22:49.680Z,69.44
2019-05-22T23:25:19.933Z,69.48
2019-05-22T23:27:50.849Z,69.73
2019-05-22T23:30:21.021Z,69.91
2019-05-22T23:32:52.539Z,70.12
2019-05-22T23:35:22.788Z,70.38
2019-05-22T23:37:52.393Z,70.61
2019-05-22T23:40:31.016Z,70.94
2019-05-22T23:43:01.881Z,71.00
2019-05-22T23:45:31.284Z,71.07
2019-05-22T23:48:05.308Z,71.49
2019-05-22T23:50:38.009Z,71.69
2019-05-22T23:53:08.738Z,71.80
2019-05-22T23:55:40.763Z,72.19
2019-05-22T23:58:12.223Z,72.17
